MOL Partner — 3EBZ5 — position and weather

sailwx.info

Track history (hours):
 
Tides and Currents Weather Stations Pressure Air Temp Water Temp Dewpoint Dewpoint Depression Visibility Wind Speed Wind Dir Waves Ship Positions

MOL Partner

Last reported at 2016-Feb-06 09:12 UTC. Time now 2016-Feb-09 09:53 UTC.
Position S 24°35' W 040°37'.

Length 293 m; draft 11.7 m.

Type: Ship (hazmat cat D). MMSI: 371303000.

Date/timePositionNaut miles runAvg speedWind from/ knotsBaromVisibWave heightAir tempDewpointWater temp
2016-Feb-06 09:12S 24°35' W 040°37'6714.5
2016-Feb-06 04:34S 24°07' W 041°44'1814.5
2016-Feb-06 03:18S 23°59' W 042°02'1114.3
2016-Feb-06 02:32S 23°54' W 042°13'1514.4
2016-Feb-06 01:28S 23°48' W 042°28'2913.7
2016-Feb-05 23:22S 23°37' W 042°57'191 4.1
2016-Feb-04 00:33S 24°07' W 046°23'9 8.6
2016-Feb-03 23:33S 23°60' W 046°18'5 1.5
2016-Feb-03 20:06S 23°55' W 046°21'0 0.0
2016-Feb-03 19:30S 23°55' W 046°21'0 0.0
2016-Feb-03 14:30S 23°55' W 046°21'0 0.0
2016-Feb-03 13:24S 23°55' W 046°21'0 0.0
2016-Feb-03 12:33S 23°55' W 046°21'0 0.0
2016-Feb-03 11:33S 23°55' W 046°21'0 0.0
2016-Feb-03 10:33S 23°55' W 046°21'0 0.0
2016-Feb-03 09:30S 23°55' W 046°21'0 0.0
2016-Feb-03 08:16S 23°55' W 046°21'0 0.0
2016-Feb-03 07:33S 23°55' W 046°21'4 4.4
2016-Feb-03 06:33S 23°58' W 046°18'8 7.7
2016-Feb-03 05:33S 24°05' W 046°22'3 2.8
2016-Feb-03 04:29S 24°07' W 046°20'0 0.0
2016-Feb-03 03:26S 24°07' W 046°20'0 0.1
2016-Feb-03 02:29S 24°07' W 046°20'0 0.0
2016-Feb-03 01:29S 24°07' W 046°20'0 0.0
2016-Feb-03 00:26S 24°07' W 046°20'0 0.0
2016-Feb-02 23:29S 24°07' W 046°20'0 0.0
2016-Feb-02 22:29S 24°07' W 046°20'0 0.0
2016-Feb-02 21:29S 24°07' W 046°20'0 0.0
2016-Feb-02 20:32S 24°07' W 046°20'0 0.0
2016-Feb-02 19:29S 24°07' W 046°20'0 0.0
2016-Feb-02 17:29S 24°07' W 046°20'0 0.0
2016-Feb-02 16:11S 24°07' W 046°20'0 0.0
2016-Feb-02 15:32S 24°07' W 046°20'0 0.0
2016-Feb-02 14:14S 24°07' W 046°20'0 0.0
2016-Feb-02 13:20S 24°07' W 046°20'0 0.0
2016-Feb-02 12:29S 24°07' W 046°20'0 0.0
2016-Feb-02 11:23S 24°07' W 046°20'0 0.0
2016-Feb-02 10:29S 24°07' W 046°20'0 0.0
2016-Feb-02 09:23S 24°07' W 046°20'0 0.1
2016-Feb-02 08:33S 24°07' W 046°20'8 7.6
2016-Feb-02 07:33S 24°14' W 046°24'5 5.2
2016-Feb-02 06:34S 24°19' W 046°24'9 9.1
2016-Feb-02 05:33S 24°25' W 046°32'1010.1
2016-Feb-02 04:33S 24°33' W 046°38'10 9.8
2016-Feb-02 03:33S 24°41' W 046°44'10 9.8
2016-Feb-02 02:34S 24°49' W 046°50'1111.0
2016-Feb-02 01:33S 24°58' W 046°58'1511.4
2016-Feb-02 00:15S 25°10' W 047°07'811.3
2016-Feb-01 23:31S 25°17' W 047°13'1414.5
2016-Feb-01 22:33S 25°29' W 047°21'1413.6
2016-Feb-01 21:30S 25°40' W 047°30'1111.7
2016-Feb-01 20:33S 25°48' W 047°39'79 2.3
2016-Jan-31 10:08S 26°52' W 048°30'1 0.3
2016-Jan-31 06:28S 26°51' W 048°30'32 5.1
2016-Jan-31 00:14S 26°20' W 048°22'810.1
2016-Jan-30 23:27S 26°12' W 048°24'131 2.7
2016-Jan-28 23:03S 24°54' W 046°27'  
Track history (hours):
 
Tides and Currents Weather Stations Pressure Air Temp Water Temp Dewpoint Dewpoint Depression Visibility Wind Speed Wind Dir Waves Ship Positions

MOL Partner

Last reported at 2016-Feb-06 09:12 UTC. Time now 2016-Feb-09 09:53 UTC.
Position S 24°35' W 040°37'.

Length 293 m; draft 11.7 m.

Type: Ship (hazmat cat D). MMSI: 371303000.

Date/timePositionNaut miles runAvg speedWind from/ knotsBaromVisibWave heightAir tempDewpointWater temp
2016-Feb-06 09:12S 24°35' W 040°37'6714.5
2016-Feb-06 04:34S 24°07' W 041°44'1814.5
2016-Feb-06 03:18S 23°59' W 042°02'1114.3
2016-Feb-06 02:32S 23°54' W 042°13'1514.4
2016-Feb-06 01:28S 23°48' W 042°28'2913.7
2016-Feb-05 23:22S 23°37' W 042°57'191 4.1
2016-Feb-04 00:33S 24°07' W 046°23'9 8.6
2016-Feb-03 23:33S 23°60' W 046°18'5 1.5
2016-Feb-03 20:06S 23°55' W 046°21'0 0.0
2016-Feb-03 19:30S 23°55' W 046°21'0 0.0
2016-Feb-03 14:30S 23°55' W 046°21'0 0.0
2016-Feb-03 13:24S 23°55' W 046°21'0 0.0
2016-Feb-03 12:33S 23°55' W 046°21'0 0.0
2016-Feb-03 11:33S 23°55' W 046°21'0 0.0
2016-Feb-03 10:33S 23°55' W 046°21'0 0.0
2016-Feb-03 09:30S 23°55' W 046°21'0 0.0
2016-Feb-03 08:16S 23°55' W 046°21'0 0.0
2016-Feb-03 07:33S 23°55' W 046°21'4 4.4
2016-Feb-03 06:33S 23°58' W 046°18'8 7.7
2016-Feb-03 05:33S 24°05' W 046°22'3 2.8
2016-Feb-03 04:29S 24°07' W 046°20'0 0.0
2016-Feb-03 03:26S 24°07' W 046°20'0 0.1
2016-Feb-03 02:29S 24°07' W 046°20'0 0.0
2016-Feb-03 01:29S 24°07' W 046°20'0 0.0
2016-Feb-03 00:26S 24°07' W 046°20'0 0.0
2016-Feb-02 23:29S 24°07' W 046°20'0 0.0
2016-Feb-02 22:29S 24°07' W 046°20'0 0.0
2016-Feb-02 21:29S 24°07' W 046°20'0 0.0
2016-Feb-02 20:32S 24°07' W 046°20'0 0.0
2016-Feb-02 19:29S 24°07' W 046°20'0 0.0
2016-Feb-02 17:29S 24°07' W 046°20'0 0.0
2016-Feb-02 16:11S 24°07' W 046°20'0 0.0
2016-Feb-02 15:32S 24°07' W 046°20'0 0.0
2016-Feb-02 14:14S 24°07' W 046°20'0 0.0
2016-Feb-02 13:20S 24°07' W 046°20'0 0.0
2016-Feb-02 12:29S 24°07' W 046°20'0 0.0
2016-Feb-02 11:23S 24°07' W 046°20'0 0.0
2016-Feb-02 10:29S 24°07' W 046°20'0 0.0
2016-Feb-02 09:23S 24°07' W 046°20'0 0.1
2016-Feb-02 08:33S 24°07' W 046°20'8 7.6
2016-Feb-02 07:33S 24°14' W 046°24'5 5.2
2016-Feb-02 06:34S 24°19' W 046°24'9 9.1
2016-Feb-02 05:33S 24°25' W 046°32'1010.1
2016-Feb-02 04:33S 24°33' W 046°38'10 9.8
2016-Feb-02 03:33S 24°41' W 046°44'10 9.8
2016-Feb-02 02:34S 24°49' W 046°50'1111.0
2016-Feb-02 01:33S 24°58' W 046°58'1511.4
2016-Feb-02 00:15S 25°10' W 047°07'811.3
2016-Feb-01 23:31S 25°17' W 047°13'1414.5
2016-Feb-01 22:33S 25°29' W 047°21'1413.6
2016-Feb-01 21:30S 25°40' W 047°30'1111.7
2016-Feb-01 20:33S 25°48' W 047°39'79 2.3
2016-Jan-31 10:08S 26°52' W 048°30'1 0.3
2016-Jan-31 06:28S 26°51' W 048°30'32 5.1
2016-Jan-31 00:14S 26°20' W 048°22'810.1
2016-Jan-30 23:27S 26°12' W 048°24'131 2.7
2016-Jan-28 23:03S 24°54' W 046°27'  

Dump ship's entire track history